Time;durP1;ratioP1;P1;durP2;ratioP2;P2;SDS_P1;SDS_P2;PMS_P1;PMS_P2;Temp;Humidity;BMP_temperature;BMP_pressure;BME280_temperature;BME280_humidity;BME280_pressure;Samples;Min_cycle;Max_cycle;Signal;HPM_P1;HPM_P2
2022/10/14 00:02:02;;;;;;;27.05;20.88;;;13.60;99.90;;;;;;5068011;28;20040;-66
2022/10/14 00:04:28;;;;;;;32.80;22.15;;;13.60;99.90;;;;;;5063315;28;20052;-66
2022/10/14 00:06:55;;;;;;;29.80;21.55;;;13.50;99.90;;;;;;5070380;28;20037;-65
2022/10/14 00:09:20;;;;;;;33.63;20.98;;;13.50;99.90;;;;;;5043850;28;21083;-68
2022/10/14 00:11:46;;;;;;;30.10;21.15;;;13.30;99.90;;;;;;5070229;28;20029;-65
2022/10/14 00:14:14;;;;;;;28.70;20.25;;;13.20;99.90;;;;;;5059913;28;20028;-65
2022/10/14 00:16:41;;;;;;;34.50;20.95;;;13.30;99.90;;;;;;5064845;28;20028;-66
2022/10/14 00:19:07;;;;;;;32.33;21.75;;;13.50;99.90;;;;;;5060323;28;21500;-66
2022/10/14 00:21:35;;;;;;;30.33;22.60;;;13.60;99.90;;;;;;5065592;28;20053;-66
2022/10/14 00:24:01;;;;;;;30.60;21.55;;;13.70;99.90;;;;;;5068035;28;20041;-65
2022/10/14 00:26:30;;;;;;;36.70;22.85;;;13.60;99.90;;;;;;5068842;28;20036;-65
2022/10/14 00:28:57;;;;;;;31.10;22.15;;;13.50;99.90;;;;;;5071618;28;20487;-66
2022/10/14 00:31:23;;;;;;;35.78;23.63;;;13.50;99.90;;;;;;5065869;28;20053;-66
2022/10/14 00:33:49;;;;;;;33.15;22.60;;;13.70;99.90;;;;;;5042426;28;20316;-65
2022/10/14 00:36:17;;;;;;;30.52;22.08;;;13.80;99.90;;;;;;5066186;28;20021;-65
2022/10/14 00:38:44;;;;;;;35.15;23.45;;;13.70;99.90;;;;;;5068517;28;20063;-65
2022/10/14 00:41:12;;;;;;;37.90;22.75;;;13.70;99.90;;;;;;5066685;28;20052;-66
2022/10/14 00:43:54;;;;;;;33.92;23.33;;;13.60;99.90;;;;;;5069288;28;20489;-66
2022/10/14 00:46:20;;;;;;;33.92;23.70;;;13.70;99.90;;;;;;5064390;28;20068;-65
2022/10/14 00:48:46;;;;;;;35.33;23.08;;;13.60;99.90;;;;;;5066526;28;20437;-65
2022/10/14 00:51:12;;;;;;;31.88;22.05;;;13.70;99.90;;;;;;5063676;28;20127;-66
2022/10/14 00:53:41;;;;;;;30.83;21.40;;;13.60;99.90;;;;;;5069313;28;20040;-65
2022/10/14 00:56:09;;;;;;;28.85;21.30;;;13.50;99.90;;;;;;5065535;28;20044;-66
2022/10/14 00:58:35;;;;;;;31.45;21.50;;;13.40;99.90;;;;;;5047767;28;20032;-66
2022/10/14 01:01:00;;;;;;;30.17;21.33;;;13.30;99.90;;;;;;5065318;28;20040;-66
2022/10/14 01:03:26;;;;;;;30.23;21.33;;;13.30;99.90;;;;;;5068646;28;20127;-65
2022/10/14 01:06:08;;;;;;;27.33;20.10;;;13.30;99.90;;;;;;5062261;28;20381;-65
2022/10/14 01:08:47;;;;;;;30.55;21.92;;;13.30;99.90;;;;;;5064207;28;20028;-66
2022/10/14 01:11:25;;;;;;;27.63;21.55;;;13.20;99.90;;;;;;5064936;28;20352;-66
2022/10/14 01:14:17;;;;;;;27.38;20.90;;;13.20;99.90;;;;;;5043272;28;20114;-65
2022/10/14 01:17:02;;;;;;;27.17;21.60;;;13.30;99.90;;;;;;5042152;28;20033;-66
2022/10/14 01:19:56;;;;;;;31.35;21.85;;;13.20;99.90;;;;;;5040676;28;20127;-65
2022/10/14 01:22:39;;;;;;;28.70;20.25;;;13.30;99.90;;;;;;5062728;28;20793;-66
2022/10/14 01:25:09;;;;;;;;;;;13.20;99.90;;;;;;5068505;28;20034;-66
2022/10/14 01:28:03;;;;;;;27.33;20.23;;;13.30;99.90;;;;;;5063556;28;19922;-66
2022/10/14 01:30:35;;;;;;;;;;;13.30;99.90;;;;;;5049879;28;20059;-65
2022/10/14 01:33:05;;;;;;;26.48;19.10;;;13.20;99.90;;;;;;5050784;28;19935;-65
2022/10/14 01:35:53;;;;;;;25.00;19.42;;;13.30;99.90;;;;;;5063487;28;20563;-66
2022/10/14 01:38:24;;;;;;;27.80;19.30;;;13.30;99.90;;;;;;5063292;28;20047;-66
2022/10/14 01:41:05;;;;;;;25.52;19.33;;;13.30;99.90;;;;;;5068421;28;20079;-65
2022/10/14 01:43:32;;;;;;;27.60;18.75;;;13.30;99.90;;;;;;5058610;28;20076;-65
2022/10/14 01:46:01;;;;;;;27.05;20.05;;;13.40;99.90;;;;;;5052827;28;20092;-66
2022/10/14 01:48:35;;;;;;;22.85;18.73;;;13.30;99.90;;;;;;5055906;28;20118;-66
2022/10/14 01:51:05;;;;;;;23.70;18.02;;;13.30;99.90;;;;;;5066701;28;20089;-66
2022/10/14 01:53:39;;;;;;;27.92;17.95;;;13.30;99.90;;;;;;5068586;28;20375;-67
2022/10/14 01:56:06;;;;;;;26.23;18.60;;;13.20;99.90;;;;;;5062921;28;20040;-65
2022/10/14 01:58:32;;;;;;;22.63;18.13;;;13.20;99.90;;;;;;5061831;28;20037;-66
2022/10/14 02:01:01;;;;;;;24.58;18.42;;;13.20;99.90;;;;;;5063050;28;20048;-66
2022/10/14 02:03:37;;;;;;;25.05;18.05;;;13.20;99.90;;;;;;5062242;28;20040;-65
2022/10/14 02:06:08;;;;;;;22.58;18.80;;;13.30;99.90;;;;;;5045746;28;20032;-65
2022/10/14 02:08:55;;;;;;;24.05;18.50;;;13.30;99.90;;;;;;5063927;28;20035;-65
2022/10/14 02:11:22;;;;;;;23.85;17.70;;;13.30;99.90;;;;;;5058305;28;20039;-66
2022/10/14 02:14:05;;;;;;;22.58;16.95;;;13.30;99.90;;;;;;5063454;28;20040;-67
2022/10/14 02:16:41;;;;;;;23.60;17.75;;;13.30;99.90;;;;;;5048140;28;20040;-66
2022/10/14 02:19:42;;;;;;;24.30;17.75;;;13.30;99.90;;;;;;5042528;28;22013;-66
2022/10/14 02:22:30;;;;;;;23.17;17.88;;;13.30;99.90;;;;;;5057283;28;20054;-65
2022/10/14 02:25:03;;;;;;;23.45;16.83;;;13.30;99.90;;;;;;5063279;28;20116;-65
2022/10/14 02:27:31;;;;;;;22.08;17.90;;;13.30;99.90;;;;;;5078908;28;20035;-66
2022/10/14 02:29:58;;;;;;;20.83;17.40;;;13.30;99.90;;;;;;5080115;28;20415;-65
2022/10/14 02:32:26;;;;;;;25.60;18.08;;;13.30;99.90;;;;;;5064872;28;20526;-65
2022/10/14 02:34:55;;;;;;;22.83;17.02;;;13.30;99.90;;;;;;5064257;28;20074;-66
2022/10/14 02:37:22;;;;;;;24.10;18.65;;;13.30;99.90;;;;;;5083379;28;20066;-66
2022/10/14 02:39:56;;;;;;;26.13;17.83;;;13.30;99.90;;;;;;5084305;28;20047;-66
2022/10/14 02:42:22;;;;;;;25.88;19.15;;;13.40;99.90;;;;;;5083527;28;20681;-65
2022/10/14 02:44:53;;;;;;;24.73;18.55;;;13.40;99.90;;;;;;5087340;28;20140;-66
2022/10/14 02:47:19;;;;;;;26.92;18.85;;;13.50;99.90;;;;;;5067536;28;20557;-65
2022/10/14 02:49:44;;;;;;;24.85;19.05;;;13.50;99.90;;;;;;5081867;28;20028;-65
2022/10/14 02:52:10;;;;;;;22.17;18.20;;;13.40;99.90;;;;;;5085365;28;20039;-66
2022/10/14 02:54:35;;;;;;;23.45;18.63;;;13.50;99.90;;;;;;5083812;28;20043;-66
2022/10/14 02:57:01;;;;;;;26.20;19.58;;;13.50;99.90;;;;;;5083295;28;20120;-66
2022/10/14 02:59:26;;;;;;;24.75;19.33;;;13.60;99.90;;;;;;5066176;28;20044;-65
2022/10/14 03:01:52;;;;;;;24.42;18.73;;;13.50;99.90;;;;;;5083946;28;20104;-66
2022/10/14 03:04:17;;;;;;;26.63;18.90;;;13.50;99.90;;;;;;5083554;28;20323;-66
2022/10/14 03:06:43;;;;;;;23.17;18.15;;;13.50;99.90;;;;;;5083623;28;20588;-66
2022/10/14 03:09:08;;;;;;;25.25;18.55;;;13.40;99.90;;;;;;5081787;28;20045;-65
2022/10/14 03:11:34;;;;;;;24.35;18.42;;;13.40;99.90;;;;;;5084091;28;20040;-66
2022/10/14 03:13:59;;;;;;;25.08;18.85;;;13.50;99.90;;;;;;5079477;28;20040;-66
2022/10/14 03:16:25;;;;;;;23.27;19.00;;;13.40;99.90;;;;;;5080286;28;20527;-65
2022/10/14 03:18:50;;;;;;;22.65;18.00;;;13.50;99.90;;;;;;5083819;28;20121;-66
2022/10/14 03:21:16;;;;;;;23.35;19.23;;;13.50;99.90;;;;;;5081798;28;20036;-65
2022/10/14 03:23:41;;;;;;;24.35;19.20;;;13.50;99.90;;;;;;5083451;28;20616;-66
2022/10/14 03:26:07;;;;;;;27.05;19.02;;;13.40;99.90;;;;;;5065475;28;20437;-65
2022/10/14 03:28:32;;;;;;;23.88;18.70;;;13.40;99.90;;;;;;5082772;28;20054;-65
2022/10/14 03:30:58;;;;;;;27.17;19.80;;;13.40;99.90;;;;;;5067432;28;20080;-66
2022/10/14 03:33:23;;;;;;;23.88;19.40;;;13.30;99.90;;;;;;5081825;28;20044;-66
2022/10/14 03:35:49;;;;;;;23.17;19.15;;;13.40;99.90;;;;;;5081446;28;20036;-66
2022/10/14 03:38:15;;;;;;;21.85;18.83;;;13.50;99.90;;;;;;5081918;28;20031;-65
2022/10/14 03:40:40;;;;;;;25.95;21.02;;;13.40;99.90;;;;;;5069077;28;20043;-66
2022/10/14 03:43:06;;;;;;;27.45;21.40;;;13.40;99.90;;;;;;5081117;28;20886;-66
2022/10/14 03:45:31;;;;;;;26.70;21.45;;;13.40;99.90;;;;;;5083591;28;20679;-67
2022/10/14 03:47:57;;;;;;;29.88;22.05;;;13.40;99.90;;;;;;5081550;28;20656;-66
2022/10/14 03:50:22;;;;;;;28.35;22.23;;;13.40;99.90;;;;;;5081987;28;20403;-66
2022/10/14 03:52:48;;;;;;;28.73;21.85;;;13.50;99.90;;;;;;5082277;28;20097;-65
2022/10/14 03:55:14;;;;;;;28.13;22.88;;;13.50;99.90;;;;;;5081257;28;20067;-66
2022/10/14 03:57:39;;;;;;;32.95;23.33;;;13.60;99.90;;;;;;5080638;28;20060;-65
2022/10/14 04:00:06;;;;;;;31.30;23.88;;;13.40;99.90;;;;;;5081846;28;20028;-65
2022/10/14 04:02:31;;;;;;;32.20;24.40;;;13.40;99.90;;;;;;5079024;28;20117;-66
2022/10/14 04:04:57;;;;;;;32.85;25.30;;;13.40;99.90;;;;;;5082782;28;20024;-66
2022/10/14 04:07:23;;;;;;;31.85;25.17;;;13.40;99.90;;;;;;5067250;28;20433;-66
2022/10/14 04:09:48;;;;;;;33.88;25.88;;;13.50;99.90;;;;;;5082627;28;20036;-66
2022/10/14 04:12:14;;;;;;;35.80;26.70;;;13.50;99.90;;;;;;5081829;28;20051;-65
2022/10/14 04:14:40;;;;;;;35.08;25.85;;;13.50;99.90;;;;;;5075932;28;20040;-66
2022/10/14 04:17:05;;;;;;;35.53;25.98;;;13.50;99.90;;;;;;5079413;28;20039;-66
2022/10/14 04:19:31;;;;;;;34.45;25.75;;;13.50;99.90;;;;;;5079344;28;20054;-66
2022/10/14 04:21:56;;;;;;;29.15;24.08;;;13.60;99.90;;;;;;5080464;28;20037;-66
2022/10/14 04:24:22;;;;;;;27.80;22.75;;;13.50;99.90;;;;;;5082100;28;20047;-66
2022/10/14 04:26:51;;;;;;;29.20;23.23;;;13.50;99.90;;;;;;5081398;28;20081;-67
2022/10/14 04:29:17;;;;;;;28.83;23.52;;;13.50;99.90;;;;;;5079451;28;20087;-66
2022/10/14 04:31:43;;;;;;;27.98;23.02;;;13.50;99.90;;;;;;5065322;28;20032;-66
2022/10/14 04:34:10;;;;;;;32.58;24.55;;;13.50;99.90;;;;;;5069279;28;20135;-66
2022/10/14 04:36:35;;;;;;;31.35;23.75;;;13.50;99.90;;;;;;5079482;28;20123;-67
2022/10/14 04:39:01;;;;;;;30.45;22.98;;;13.60;99.90;;;;;;5081699;28;20111;-67
2022/10/14 04:41:27;;;;;;;36.10;24.85;;;13.60;99.90;;;;;;5081168;28;20220;-66
2022/10/14 04:43:53;;;;;;;30.42;23.92;;;13.60;99.90;;;;;;5084255;28;20043;-67
2022/10/14 04:46:18;;;;;;;29.30;23.65;;;13.60;99.90;;;;;;5082406;28;20074;-66
2022/10/14 04:48:46;;;;;;;33.65;23.65;;;13.50;99.90;;;;;;5082957;28;20051;-66
2022/10/14 04:51:12;;;;;;;29.35;22.95;;;13.60;99.90;;;;;;5064013;28;20032;-66
2022/10/14 04:53:37;;;;;;;27.92;21.80;;;13.50;99.90;;;;;;5066028;28;20048;-66
2022/10/14 04:56:03;;;;;;;27.10;21.33;;;13.50;99.90;;;;;;5080580;28;20040;-66
2022/10/14 04:58:28;;;;;;;29.45;21.67;;;13.50;99.90;;;;;;5073809;28;20636;-66
2022/10/14 05:00:54;;;;;;;29.00;21.52;;;13.50;99.90;;;;;;5080978;28;20044;-66
2022/10/14 05:03:19;;;;;;;29.60;21.48;;;13.70;99.90;;;;;;5081640;28;20677;-66
2022/10/14 05:05:45;;;;;;;27.23;21.70;;;13.60;99.90;;;;;;5078196;28;20052;-66
2022/10/14 05:08:11;;;;;;;28.52;21.20;;;13.60;99.90;;;;;;5080160;28;20056;-64
2022/10/14 05:10:38;;;;;;;26.25;21.52;;;13.50;99.90;;;;;;5080521;28;20097;-65
2022/10/14 05:13:03;;;;;;;28.88;20.58;;;13.40;99.90;;;;;;5058005;28;20044;-66
2022/10/14 05:15:30;;;;;;;28.35;21.10;;;13.50;99.90;;;;;;5078080;28;20101;-66
2022/10/14 05:17:55;;;;;;;28.15;20.90;;;13.60;99.90;;;;;;5078704;28;20376;-66
2022/10/14 05:20:21;;;;;;;27.90;20.10;;;13.50;99.90;;;;;;5065059;28;20105;-66
2022/10/14 05:22:47;;;;;;;25.67;19.80;;;13.50;99.90;;;;;;5081031;28;20147;-65
2022/10/14 05:25:12;;;;;;;26.40;20.52;;;13.50;99.90;;;;;;5075956;28;20032;-66
2022/10/14 05:27:38;;;;;;;25.55;19.65;;;13.50;99.90;;;;;;5078872;28;20097;-66
2022/10/14 05:30:04;;;;;;;25.13;18.48;;;13.60;99.90;;;;;;5063951;28;20028;-66
2022/10/14 05:32:30;;;;;;;23.10;17.95;;;13.50;99.90;;;;;;5080156;28;20487;-66
2022/10/14 05:34:55;;;;;;;23.65;18.27;;;13.60;99.90;;;;;;5080486;28;20028;-66
2022/10/14 05:37:21;;;;;;;22.75;16.75;;;13.50;99.90;;;;;;5078129;28;20044;-66
2022/10/14 05:39:47;;;;;;;21.85;17.27;;;13.60;99.90;;;;;;5081372;28;20042;-66
2022/10/14 05:42:12;;;;;;;20.00;16.80;;;13.60;99.90;;;;;;5078196;28;20034;-66
2022/10/14 05:44:38;;;;;;;23.27;17.58;;;13.50;99.90;;;;;;5068505;28;20059;-65
2022/10/14 05:47:03;;;;;;;21.17;17.42;;;13.60;99.90;;;;;;5081093;28;20040;-65
2022/10/14 05:49:29;;;;;;;25.67;17.67;;;13.50;99.90;;;;;;5064827;28;20131;-66
2022/10/14 05:51:54;;;;;;;21.50;16.52;;;13.50;99.90;;;;;;5080266;28;20051;-65
2022/10/14 05:54:20;;;;;;;21.73;16.10;;;13.60;99.90;;;;;;5063905;28;20117;-66
2022/10/14 05:56:45;;;;;;;22.77;16.38;;;13.70;99.90;;;;;;5079544;28;20446;-66
2022/10/14 05:59:11;;;;;;;21.30;15.88;;;13.60;99.90;;;;;;5079410;28;20031;-66
2022/10/14 06:01:37;;;;;;;20.00;16.00;;;13.40;99.90;;;;;;5080403;28;20044;-64
2022/10/14 06:04:03;;;;;;;23.02;16.65;;;13.70;99.90;;;;;;5079403;28;20036;-64
2022/10/14 06:06:28;;;;;;;21.75;17.25;;;13.70;99.90;;;;;;5059605;28;20375;-64
2022/10/14 06:08:55;;;;;;;24.05;18.13;;;13.70;99.90;;;;;;5078970;28;20038;-65
2022/10/14 06:11:20;;;;;;;24.90;17.77;;;13.70;99.90;;;;;;5059761;28;20036;-63
2022/10/14 06:13:46;;;;;;;24.23;16.80;;;13.70;99.90;;;;;;5079708;28;20434;-64
2022/10/14 06:16:11;;;;;;;24.15;18.38;;;13.60;99.90;;;;;;5078908;28;20039;-64
2022/10/14 06:18:37;;;;;;;21.90;17.00;;;13.60;99.90;;;;;;5077529;28;20058;-64
2022/10/14 06:21:06;;;;;;;25.90;17.00;;;13.70;99.90;;;;;;5082342;28;20052;-63
2022/10/14 06:23:32;;;;;;;23.33;17.45;;;13.50;99.90;;;;;;5082311;28;20039;-64
2022/10/14 06:25:58;;;;;;;29.45;17.30;;;13.70;99.90;;;;;;5070227;28;20063;-64
2022/10/14 06:28:24;;;;;;;20.80;16.55;;;13.70;99.90;;;;;;5078910;28;20467;-63
2022/10/14 06:30:51;;;;;;;20.40;15.82;;;13.70;99.90;;;;;;5077694;28;20119;-64
2022/10/14 06:33:17;;;;;;;19.88;16.45;;;13.60;99.90;;;;;;5069320;28;20386;-64
2022/10/14 06:35:42;;;;;;;23.38;16.60;;;13.70;99.90;;;;;;5059371;28;20032;-65
2022/10/14 06:38:08;;;;;;;21.50;16.35;;;13.70;99.90;;;;;;5077135;28;20525;-64
2022/10/14 06:40:34;;;;;;;25.17;16.35;;;13.80;99.90;;;;;;5079807;28;20495;-63
2022/10/14 06:43:00;;;;;;;24.75;16.50;;;13.70;99.90;;;;;;5082441;28;20040;-63
2022/10/14 06:45:25;;;;;;;25.25;16.58;;;13.80;99.90;;;;;;5075190;28;20130;-63
2022/10/14 06:47:51;;;;;;;20.67;15.98;;;13.90;99.90;;;;;;5079841;28;20097;-63
2022/10/14 06:50:17;;;;;;;24.33;15.98;;;13.70;99.90;;;;;;5079046;28;20101;-65
2022/10/14 06:52:44;;;;;;;35.20;18.15;;;13.80;99.90;;;;;;5080248;28;20081;-62
2022/10/14 06:55:10;;;;;;;25.35;15.20;;;14.10;99.90;;;;;;5078146;28;20590;-63
2022/10/14 06:57:36;;;;;;;22.40;15.43;;;13.90;99.90;;;;;;5078799;28;20039;-64
2022/10/14 07:00:02;;;;;;;23.17;14.75;;;13.90;99.90;;;;;;5061308;28;20036;-64
2022/10/14 07:02:28;;;;;;;21.60;14.75;;;13.80;99.90;;;;;;5076701;28;20513;-64
2022/10/14 07:04:53;;;;;;;19.40;15.82;;;13.90;99.90;;;;;;5078436;28;20063;-64
2022/10/14 07:07:19;;;;;;;18.33;14.27;;;13.80;99.90;;;;;;5079597;28;20139;-64
2022/10/14 07:09:44;;;;;;;25.75;14.98;;;13.80;99.90;;;;;;5079399;28;20044;-63
2022/10/14 07:12:10;;;;;;;22.77;14.90;;;13.80;99.90;;;;;;5059980;28;20043;-64
2022/10/14 07:14:35;;;;;;;19.52;14.05;;;13.90;99.90;;;;;;5077304;28;20043;-63
2022/10/14 07:17:01;;;;;;;23.05;15.40;;;14.00;99.90;;;;;;5079944;28;20051;-64
2022/10/14 07:19:26;;;;;;;18.20;13.68;;;14.00;99.90;;;;;;5071156;28;20112;-65
2022/10/14 07:21:52;;;;;;;19.30;14.13;;;14.00;99.90;;;;;;5073777;28;20629;-65
2022/10/14 07:24:17;;;;;;;16.23;14.05;;;14.00;99.90;;;;;;5081904;28;20031;-64
2022/10/14 07:26:43;;;;;;;19.02;14.70;;;14.00;99.90;;;;;;5077588;28;20035;-63
2022/10/14 07:29:09;;;;;;;18.52;12.80;;;13.90;99.90;;;;;;5081467;28;20036;-65
2022/10/14 07:31:34;;;;;;;18.52;12.93;;;13.90;99.90;;;;;;5083462;28;20036;-64
2022/10/14 07:34:00;;;;;;;17.10;12.82;;;13.90;99.90;;;;;;5082535;28;20506;-64
2022/10/14 07:36:26;;;;;;;18.88;13.27;;;13.90;99.90;;;;;;5075427;28;20039;-63
2022/10/14 07:38:52;;;;;;;17.27;13.63;;;13.90;99.90;;;;;;5079743;28;20021;-62
2022/10/14 07:41:20;;;;;;;18.70;14.38;;;14.00;99.90;;;;;;5080990;28;20043;-62
2022/10/14 07:43:49;;;;;;;18.73;13.65;;;14.00;99.90;;;;;;5061887;28;20059;-61
2022/10/14 07:46:27;;;;;;;16.02;12.65;;;14.10;99.90;;;;;;5065745;28;20050;-62
2022/10/14 07:48:53;;;;;;;18.63;13.95;;;14.10;99.90;;;;;;5063872;28;20379;-60
2022/10/14 07:51:18;;;;;;;17.50;14.13;;;14.20;99.90;;;;;;5080060;28;20039;-64
2022/10/14 07:53:44;;;;;;;19.88;14.73;;;14.30;99.90;;;;;;5083941;28;20032;-64
2022/10/14 07:56:09;;;;;;;19.42;15.10;;;14.20;99.90;;;;;;5077959;28;20509;-64
2022/10/14 07:58:35;;;;;;;18.08;14.30;;;14.20;99.90;;;;;;5079310;28;20488;-64
2022/10/14 08:01:00;;;;;;;18.58;14.80;;;14.20;99.90;;;;;;5079610;28;20051;-64
2022/10/14 08:03:26;;;;;;;20.35;14.90;;;14.30;99.90;;;;;;5077125;28;20044;-64
2022/10/14 08:05:59;;;;;;;20.88;14.77;;;14.30;99.90;;;;;;5082962;28;20040;-64
2022/10/14 08:08:24;;;;;;;20.70;15.53;;;14.40;99.90;;;;;;5085150;28;20048;-64
2022/10/14 08:10:59;;;;;;;20.73;15.13;;;14.30;99.90;;;;;;5081004;28;20449;-64
2022/10/14 08:13:24;;;;;;;16.98;13.82;;;14.40;99.90;;;;;;5077363;28;20055;-62
2022/10/14 08:15:50;;;;;;;19.92;14.70;;;14.50;99.90;;;;;;5081977;28;20036;-64
2022/10/14 08:18:15;;;;;;;17.30;13.00;;;14.40;99.90;;;;;;5082148;28;20028;-63
2022/10/14 08:20:41;;;;;;;16.83;13.00;;;14.50;99.90;;;;;;5082767;28;20486;-64
2022/10/14 08:23:07;;;;;;;16.73;12.38;;;14.40;99.90;;;;;;5086900;28;20609;-63
2022/10/14 08:25:33;;;;;;;15.82;12.57;;;14.40;99.90;;;;;;5084300;28;20369;-64
2022/10/14 08:27:58;;;;;;;19.38;12.57;;;14.50;99.90;;;;;;5085794;28;20082;-64
2022/10/14 08:30:24;;;;;;;13.85;12.15;;;14.60;99.90;;;;;;5079675;28;20717;-64
2022/10/14 08:32:50;;;;;;;15.50;12.48;;;14.60;99.90;;;;;;5081493;28;20058;-64
2022/10/14 08:35:15;;;;;;;20.63;13.18;;;14.60;99.90;;;;;;5079245;28;20410;-64
2022/10/14 08:37:41;;;;;;;16.75;12.55;;;14.60;99.90;;;;;;5080199;28;20036;-63
2022/10/14 08:40:07;;;;;;;16.63;11.75;;;14.70;99.90;;;;;;5081043;28;20043;-63
2022/10/14 08:43:03;;;;;;;14.80;11.48;;;14.70;99.90;;;;;;5083276;28;20055;-63
2022/10/14 08:45:45;;;;;;;13.88;11.85;;;14.70;99.90;;;;;;5074510;28;20047;-64
2022/10/14 08:48:16;;;;;;;16.13;12.13;;;14.70;99.90;;;;;;5065880;28;20123;-63
2022/10/14 08:51:16;;;;;;;16.52;12.38;;;14.70;99.90;;;;;;5082593;28;20700;-63
2022/10/14 08:53:49;;;;;;;13.95;11.55;;;14.70;99.90;;;;;;5021075;28;20028;-63
2022/10/14 08:56:16;;;;;;;14.45;12.77;;;14.70;99.90;;;;;;5076760;28;20111;-63
2022/10/14 08:58:50;;;;;;;14.82;12.75;;;14.70;99.90;;;;;;5077673;28;20036;-63
2022/10/14 09:01:43;;;;;;;14.63;12.10;;;14.80;99.90;;;;;;5076592;28;20051;-63
2022/10/14 09:04:13;;;;;;;13.27;11.88;;;14.80;99.90;;;;;;5083270;28;20036;-63
2022/10/14 09:06:42;;;;;;;16.48;12.55;;;14.80;99.90;;;;;;5078564;28;20032;-64
2022/10/14 09:09:27;;;;;;;13.45;11.82;;;14.80;99.90;;;;;;5080823;28;20066;-63
2022/10/14 09:11:59;;;;;;;16.83;11.63;;;14.70;99.90;;;;;;5077606;28;20109;-63
2022/10/14 09:14:32;;;;;;;13.85;11.93;;;14.90;99.90;;;;;;5052086;28;20143;-64
2022/10/14 09:17:05;;;;;;;13.60;11.05;;;14.80;99.90;;;;;;5057046;28;20043;-63
2022/10/14 09:19:35;;;;;;;15.70;11.32;;;14.80;99.90;;;;;;5081062;28;20665;-64
2022/10/14 09:22:01;;;;;;;13.35;11.63;;;14.90;99.90;;;;;;5081498;28;20484;-64
2022/10/14 09:24:30;;;;;;;13.82;10.88;;;15.00;99.90;;;;;;5061132;28;20073;-64
2022/10/14 09:27:09;;;;;;;13.02;10.43;;;15.00;99.90;;;;;;5058179;28;20040;-63
2022/10/14 09:30:01;;;;;;;14.63;11.88;;;15.10;99.90;;;;;;5040005;28;20140;-64
2022/10/14 09:32:32;;;;;;;13.98;11.27;;;15.20;99.90;;;;;;5060462;28;20466;-64
2022/10/14 09:34:58;;;;;;;16.20;11.90;;;15.20;99.90;;;;;;5057012;28;20467;-65
2022/10/14 09:37:32;;;;;;;64.38;55.72;;;15.20;99.90;;;;;;5041222;28;20521;-64
2022/10/14 09:40:06;;;;;;;12.05;10.63;;;15.20;99.90;;;;;;5059837;28;20041;-64
2022/10/14 09:42:54;;;;;;;13.25;9.93;;;15.20;99.90;;;;;;5055973;28;20068;-63
2022/10/14 09:45:22;;;;;;;14.52;10.20;;;15.00;99.90;;;;;;5051790;28;20036;-64
2022/10/14 09:47:55;;;;;;;13.25;10.57;;;15.00;99.90;;;;;;5052960;28;20200;-64
2022/10/14 09:50:46;;;;;;;14.73;10.70;;;15.00;99.90;;;;;;5059288;28;20435;-63
2022/10/14 09:53:26;;;;;;;13.85;11.00;;;15.00;99.90;;;;;;5058561;28;20044;-64
2022/10/14 09:55:55;;;;;;;13.77;10.90;;;15.10;99.90;;;;;;5061140;28;20037;-63
2022/10/14 09:58:43;;;;;;;13.95;11.00;;;15.10;99.90;;;;;;5059366;28;20056;-63
2022/10/14 10:01:18;;;;;;;14.00;10.50;;;15.20;99.90;;;;;;5053816;28;20033;-64
2022/10/14 10:03:45;;;;;;;12.88;10.73;;;15.30;99.90;;;;;;5054946;28;20127;-64
2022/10/14 10:06:14;;;;;;;13.50;10.75;;;15.20;99.90;;;;;;5052802;28;20054;-65
2022/10/14 10:08:54;;;;;;;14.65;10.77;;;15.20;99.90;;;;;;5057826;28;20037;-64
2022/10/14 10:11:37;;;;;;;12.82;10.50;;;15.20;99.90;;;;;;5058822;28;20073;-64
2022/10/14 10:14:29;;;;;;;14.15;10.63;;;15.10;99.90;;;;;;5036833;28;20040;-64
2022/10/14 10:17:06;;;;;;;15.00;10.43;;;15.10;99.90;;;;;;5056577;28;20400;-63
2022/10/14 10:19:43;;;;;;;16.98;12.25;;;15.20;99.90;;;;;;5058005;28;20107;-64
2022/10/14 10:22:25;;;;;;;17.00;12.00;;;15.30;99.90;;;;;;5058012;28;20071;-64
2022/10/14 10:24:57;;;;;;;13.75;11.15;;;;;;;;;;5039781;28;20036;-64
2022/10/14 10:27:35;;;;;;;13.40;11.38;;;15.40;99.90;;;;;;5047328;28;20092;-63
2022/10/14 10:30:16;;;;;;;13.05;10.60;;;15.30;99.90;;;;;;5050425;28;20036;-64
2022/10/14 10:32:57;;;;;;;13.48;10.70;;;15.20;99.90;;;;;;5053072;28;20037;-64
2022/10/14 10:35:34;;;;;;;13.23;11.73;;;15.30;99.90;;;;;;5052513;28;20143;-64
2022/10/14 10:38:44;;;;;;;14.40;10.90;;;15.30;99.90;;;;;;5052006;28;20197;-65
2022/10/14 10:41:15;;;;;;;13.00;10.77;;;15.40;99.90;;;;;;5012587;28;20367;-64
2022/10/14 10:44:13;;;;;;;14.00;10.95;;;15.40;99.90;;;;;;5056181;28;20064;-64
2022/10/14 10:47:01;;;;;;;13.05;10.80;;;15.30;99.90;;;;;;5030914;28;20433;-64
2022/10/14 10:49:48;;;;;;;13.27;10.73;;;15.30;99.90;;;;;;5054883;28;20186;-65
2022/10/14 10:52:32;;;;;;;14.13;11.50;;;15.30;99.90;;;;;;5035453;28;20128;-63
2022/10/14 10:55:36;;;;;;;13.15;11.30;;;15.40;99.90;;;;;;5056455;28;20043;-63
2022/10/14 10:58:10;;;;;;;14.70;12.48;;;15.30;99.90;;;;;;5058563;28;20036;-63
2022/10/14 11:00:56;;;;;;;16.38;12.45;;;15.30;99.90;;;;;;5055822;28;20131;-64
2022/10/14 11:03:43;;;;;;;19.77;15.23;;;15.30;99.90;;;;;;5062543;28;20044;-64
2022/10/14 11:12:14;;;;;;;24.35;15.82;;;15.20;99.90;;;;;;5060068;28;20518;-64
2022/10/14 11:15:12;;;;;;;17.80;15.38;;;15.30;99.90;;;;;;5073197;28;20036;-65
2022/10/14 11:17:57;;;;;;;18.50;14.98;;;15.20;99.90;;;;;;5082807;28;20123;-65
2022/10/14 11:20:49;;;;;;;19.65;15.88;;;15.30;99.90;;;;;;5081298;28;20130;-63
2022/10/14 11:23:47;;;;;;;17.02;14.82;;;15.20;99.90;;;;;;5030590;28;20044;-64
2022/10/14 11:26:36;;;;;;;19.85;15.27;;;15.20;99.90;;;;;;5075400;28;20036;-64
2022/10/14 11:29:34;;;;;;;18.50;14.70;;;15.20;99.90;;;;;;5082024;28;20032;-63
2022/10/14 11:32:20;;;;;;;19.92;14.88;;;15.30;99.90;;;;;;5087064;28;20553;-63
2022/10/14 11:35:18;;;;;;;19.05;14.30;;;15.30;99.90;;;;;;5082867;28;20071;-65
2022/10/14 11:38:04;;;;;;;14.90;12.02;;;15.30;99.90;;;;;;5035024;28;20033;-65
2022/10/14 11:40:37;;;;;;;21.17;14.57;;;15.40;99.90;;;;;;5068284;28;20052;-64
2022/10/14 11:43:25;;;;;;;21.40;13.90;;;15.30;99.90;;;;;;5079600;28;20035;-65
2022/10/14 11:46:02;;;;;;;17.40;12.98;;;15.40;99.90;;;;;;5064368;28;20657;-65
2022/10/14 11:48:38;;;;;;;18.63;13.00;;;15.50;99.90;;;;;;5078217;28;20054;-64
2022/10/14 11:51:19;;;;;;;16.92;13.15;;;15.50;99.90;;;;;;5076575;28;20040;-64
2022/10/14 11:54:00;;;;;;;19.48;14.43;;;15.50;99.90;;;;;;5081352;28;20054;-64
2022/10/14 11:56:53;;;;;;;19.52;14.77;;;15.60;99.90;;;;;;5082293;28;20047;-65
2022/10/14 11:59:37;;;;;;;19.75;15.35;;;15.50;99.90;;;;;;5080178;28;20050;-64
2022/10/14 12:02:29;;;;;;;22.60;16.40;;;15.60;99.90;;;;;;5059970;28;20551;-65
2022/10/14 12:05:04;;;;;;;21.23;15.57;;;15.60;99.90;;;;;;5080859;28;20124;-64
2022/10/14 12:07:56;;;;;;;22.60;16.80;;;15.60;99.90;;;;;;5074280;28;20032;-64
2022/10/14 12:10:27;;;;;;;24.40;16.23;;;15.40;99.90;;;;;;5078354;28;20511;-65
2022/10/14 12:12:54;;;;;;;21.90;15.68;;;15.40;99.90;;;;;;5079221;28;20032;-64
2022/10/14 12:15:23;;;;;;;18.10;14.57;;;15.40;99.90;;;;;;5075661;28;20036;-65
2022/10/14 12:18:00;;;;;;;21.98;15.10;;;15.50;99.90;;;;;;5082333;28;20031;-65
2022/10/14 12:20:34;;;;;;;21.67;14.63;;;15.60;99.90;;;;;;5065733;28;20075;-65
2022/10/14 12:23:02;;;;;;;22.95;16.20;;;15.60;99.90;;;;;;5088410;28;20135;-64
2022/10/14 12:25:39;;;;;;;19.63;15.63;;;15.60;99.90;;;;;;5058414;28;20163;-64
2022/10/14 12:28:05;;;;;;;18.17;14.48;;;15.60;99.90;;;;;;5059548;28;20596;-64
2022/10/14 12:30:39;;;;;;;20.27;14.20;;;15.70;99.90;;;;;;5060548;28;20120;-64
2022/10/14 12:33:10;;;;;;;17.25;14.07;;;15.70;99.90;;;;;;5060734;28;20522;-65
2022/10/14 12:36:01;;;;;;;16.63;13.18;;;15.60;99.90;;;;;;5055849;28;20037;-64
2022/10/14 12:38:28;;;;;;;19.60;14.38;;;15.60;99.90;;;;;;5058518;28;20701;-65
2022/10/14 12:41:14;;;;;;;20.60;14.10;;;15.70;99.90;;;;;;5060296;28;20713;-65
2022/10/14 12:43:40;;;;;;;16.08;12.50;;;15.90;99.90;;;;;;5056872;28;20510;-65
2022/10/14 12:46:12;;;;;;;20.23;13.70;;;15.90;99.90;;;;;;5059477;28;20036;-65
2022/10/14 12:48:46;;;;;;;17.00;12.65;;;15.90;99.90;;;;;;5057649;28;20595;-65
2022/10/14 12:51:16;;;;;;;19.27;13.48;;;16.10;99.90;;;;;;5060569;28;20090;-64
2022/10/14 12:54:03;;;;;;;18.02;14.13;;;16.00;99.90;;;;;;5059219;28;20125;-64
2022/10/14 12:56:38;;;;;;;19.73;14.13;;;16.00;99.90;;;;;;5060312;28;20146;-63